Saturday, November 18, 2017, 6:01 PM EST
Back to Local

KBLM, Belmar-farmingdale

Location: Farmingdale, NJ, United States Lat: 40.183
Local Time: 6:01 PM EST (23:01 GMT) Lon: -74.133
Time Zone: US/Eastern Elev: 157 ft

Show me the last for .
Show Coded

Time T Td Feel RH Dir Speed Gust Alt SLP Vis Weather Sky Remarks
2017-11-18 16:56 53 43 - 68 180° 12 16 29.65 29.66 10 OVC085 1-hr Precip Total: Trace
2017-11-18 15:56 53 40 - 60 190° 8 - - - 10 OVC080 6-hr Precip Total (4pm): 0.00"
2017-11-18 14:56 52 37 - 56 160° 10 21 29.69 29.71 10 OVC100 None
2017-11-18 13:56 52 34 - 50 170° 14 17 - - 10 OVC095 1-hr Precip Total: Trace
2017-11-18 12:56 52 33 - 48 200° 8 - 29.79 29.80 10 CLR 6-hr Min Temp (1pm): 33.1°F
6-hr Max Temp (1pm): 53.1°F
2017-11-18 11:56 50 37 44 60 180° 8 16 29.84 29.85 10 CLR None
2017-11-18 10:56 47 36 42 65 210° 10 - 29.90 29.92 10 CLR None
2017-11-18 09:56 42 31 40 64 170° 3 - 29.93 29.94 10 CLR None
2017-11-18 08:56 40 28 36 62 Variable 6 - 29.96 29.97 10 CLR None
2017-11-18 07:56 34 24 31 66 170° 3 - 29.98 30.00 10 CLR None
2017-11-18 06:56 33 21 29 60 160° 5 - 30.01 30.02 10 CLR 6-hr Min Temp (7am): 26.1°F
6-hr Max Temp (7am): 33.1°F
2017-11-18 05:56 30 23 25 74 180° 5 - 30.01 30.03 10 CLR None
2017-11-18 04:56 27 23 - 84 - Calm - 30.03 30.04 10 CLR None
2017-11-18 03:56 27 23 - 84 - Calm - 30.02 30.03 10 CLR None
2017-11-18 02:56 27 22 23 80 140° 3 - 30.04 30.05 10 CLR None
2017-11-18 01:56 30 22 - 71 - Calm - 30.06 30.07 10 CLR None
2017-11-18 00:56 32 20 29 60 270° 3 - 30.06 30.08 10 CLR 6-hr Min Temp (1am): 30.0°F
6-hr Max Temp (1am): 42.1°F
2017-11-17 23:56 32 21 26 63 290° 6 - 30.08 30.10 10 CLR 24-hr Min Temp (12am): 30.0°F
24-hr Max Temp (12am): 48.0°F
2017-11-17 22:56 31 22 24 68 280° 7 - 30.09 30.11 10 CLR None
2017-11-17 21:56 34 18 28 51 260° 7 - 30.10 30.11 10 CLR None
2017-11-17 20:56 35 19 31 51 280° 5 - 30.12 30.13 10 CLR None
2017-11-17 19:56 40 17 37 39 290° 5 - 30.10 30.11 10 CLR None
2017-11-17 18:56 41 18 37 38 290° 6 - 30.10 30.12 10 CLR 6-hr Min Temp (7pm): 41.0°F
6-hr Max Temp (7pm): 48.0°F

Support USWX by starting your Amazon purchase here.